Time;durP1;ratioP1;P1;durP2;ratioP2;P2;SDS_P1;SDS_P2;PMS_P1;PMS_P2;Temp;Humidity;BMP_temperature;BMP_pressure;BME280_temperature;BME280_humidity;BME280_pressure;Samples;Min_cycle;Max_cycle;Signal;HPM_P1;HPM_P2
2023/07/25 00:02:14;;;;;;;4.47;2.70;;;15.40;87.20;;;;;;5055706;28;20200;-61
2023/07/25 00:04:42;;;;;;;3.30;2.60;;;15.40;89.80;;;;;;5054398;28;20208;-61
2023/07/25 00:07:10;;;;;;;4.10;2.97;;;15.40;93.30;;;;;;5065923;28;20199;-61
2023/07/25 00:09:40;;;;;;;4.37;2.53;;;15.40;93.70;;;;;;5049262;28;20192;-61
2023/07/25 00:12:08;;;;;;;5.27;2.70;;;15.50;92.90;;;;;;5051664;28;20207;-61
2023/07/25 00:14:37;;;;;;;2.80;2.53;;;15.50;94.40;;;;;;5051524;28;20184;-61
2023/07/25 00:17:05;;;;;;;7.47;2.80;;;15.50;94.10;;;;;;5043318;28;20960;-61
2023/07/25 00:19:34;;;;;;;3.50;2.57;;;15.50;96.70;;;;;;5057602;28;20197;-61
2023/07/25 00:22:03;;;;;;;6.40;2.93;;;15.40;96.20;;;;;;5044907;28;20563;-61
2023/07/25 00:24:32;;;;;;;5.67;3.17;;;15.50;99.90;;;;;;5055403;28;20261;-61
2023/07/25 00:27:02;;;;;;;8.77;3.20;;;15.40;99.10;;;;;;5054715;28;20274;-61
2023/07/25 00:29:30;;;;;;;5.30;2.63;;;15.40;94.50;;;;;;5052406;28;20235;-61
2023/07/25 00:31:58;;;;;;;8.23;3.10;;;15.40;98.60;;;;;;5055638;28;20193;-61
2023/07/25 00:34:27;;;;;;;8.43;3.37;;;15.40;99.90;;;;;;5054027;28;20203;-61
2023/07/25 00:36:55;;;;;;;6.43;3.20;;;15.40;99.90;;;;;;5059470;28;20299;-62
2023/07/25 00:39:24;;;;;;;3.17;2.80;;;15.40;99.90;;;;;;5049202;28;20196;-61
2023/07/25 00:41:52;;;;;;;5.67;2.90;;;15.50;99.90;;;;;;5053194;28;20195;-61
2023/07/25 00:44:21;;;;;;;5.23;2.80;;;15.40;99.90;;;;;;5050978;28;20207;-61
2023/07/25 00:46:50;;;;;;;6.20;3.03;;;15.40;99.90;;;;;;5054055;28;20189;-61
2023/07/25 00:49:19;;;;;;;11.80;4.00;;;15.40;99.90;;;;;;5055513;28;20226;-61
2023/07/25 00:51:47;;;;;;;6.43;3.30;;;15.40;99.90;;;;;;5048266;28;20195;-62
2023/07/25 00:54:16;;;;;;;6.57;3.17;;;15.40;99.90;;;;;;5050495;28;20204;-61
2023/07/25 00:56:44;;;;;;;6.27;3.20;;;15.40;99.90;;;;;;5046389;28;20268;-61
2023/07/25 00:59:13;;;;;;;5.30;3.50;;;15.40;99.90;;;;;;5052835;28;20200;-61
2023/07/25 01:01:42;;;;;;;9.73;3.50;;;15.40;99.90;;;;;;5054154;28;20203;-61
2023/07/25 01:04:11;;;;;;;5.83;3.43;;;15.30;99.90;;;;;;5061402;28;20214;-61
2023/07/25 01:06:40;;;;;;;7.73;3.27;;;15.30;99.90;;;;;;5049890;28;20313;-61
2023/07/25 01:09:08;;;;;;;9.07;3.53;;;15.30;99.90;;;;;;5054440;28;20207;-61
2023/07/25 01:11:36;;;;;;;4.67;3.30;;;15.30;99.90;;;;;;5045523;28;20228;-61
2023/07/25 01:14:05;;;;;;;5.43;3.60;;;15.30;99.90;;;;;;5051511;28;20245;-61
2023/07/25 01:16:35;;;;;;;6.87;3.13;;;15.30;99.90;;;;;;5053736;28;20305;-61
2023/07/25 01:19:06;;;;;;;5.73;3.03;;;15.30;99.90;;;;;;5047758;28;20206;-61
2023/07/25 01:21:34;;;;;;;4.20;3.47;;;15.30;99.90;;;;;;5057397;28;20211;-61
2023/07/25 01:24:04;;;;;;;7.40;3.00;;;15.30;99.90;;;;;;5054627;28;20666;-61
2023/07/25 01:26:33;;;;;;;7.17;3.63;;;15.20;99.90;;;;;;5053349;28;20286;-61
2023/07/25 01:29:01;;;;;;;7.87;3.33;;;15.20;99.90;;;;;;5052765;28;20649;-61
2023/07/25 01:31:29;;;;;;;5.70;3.27;;;15.30;99.90;;;;;;5053577;28;20194;-61
2023/07/25 01:33:58;;;;;;;4.77;3.20;;;15.30;99.90;;;;;;5048475;28;20652;-61
2023/07/25 01:36:27;;;;;;;4.33;3.07;;;15.30;99.90;;;;;;5049940;28;20256;-61
2023/07/25 01:38:55;;;;;;;9.17;3.30;;;15.20;99.90;;;;;;5051866;28;20201;-61
2023/07/25 01:41:25;;;;;;;4.80;3.50;;;15.20;99.90;;;;;;5048893;28;20317;-61
2023/07/25 01:43:53;;;;;;;9.40;3.80;;;15.20;99.90;;;;;;5054027;28;20211;-61
2023/07/25 01:46:21;;;;;;;8.57;3.40;;;15.20;99.90;;;;;;5050073;28;20727;-61
2023/07/25 01:48:50;;;;;;;6.93;3.33;;;15.20;99.90;;;;;;5052693;28;20224;-62
2023/07/25 01:51:19;;;;;;;7.53;3.57;;;15.20;99.90;;;;;;5055979;28;20196;-61
2023/07/25 01:53:47;;;;;;;4.30;3.53;;;15.20;99.90;;;;;;5049982;28;20211;-61
2023/07/25 01:56:15;;;;;;;12.33;4.17;;;15.10;99.90;;;;;;5048315;28;20196;-61
2023/07/25 01:58:45;;;;;;;4.43;3.40;;;15.10;99.90;;;;;;5048424;28;20196;-61
2023/07/25 02:01:13;;;;;;;10.37;3.70;;;15.10;99.90;;;;;;5060052;28;20202;-62
2023/07/25 02:03:41;;;;;;;9.80;3.97;;;15.10;99.90;;;;;;5053446;28;20196;-61
2023/07/25 02:06:10;;;;;;;8.43;3.30;;;15.10;99.90;;;;;;5045460;28;20684;-61
2023/07/25 02:08:38;;;;;;;4.53;3.53;;;15.10;99.90;;;;;;5047691;28;20251;-61
2023/07/25 02:11:07;;;;;;;5.97;3.33;;;15.10;99.90;;;;;;5041769;28;20201;-61
2023/07/25 02:13:35;;;;;;;8.90;3.30;;;15.10;99.90;;;;;;5053406;28;20198;-61
2023/07/25 02:16:05;;;;;;;6.47;3.80;;;15.10;99.90;;;;;;5053988;28;20200;-61
2023/07/25 02:18:34;;;;;;;4.97;3.47;;;15.10;99.90;;;;;;5048608;28;20206;-61
2023/07/25 02:21:02;;;;;;;8.73;3.57;;;15.10;99.90;;;;;;5056581;28;20197;-61
2023/07/25 02:23:30;;;;;;;9.37;3.90;;;15.10;99.90;;;;;;5047509;28;20195;-61
2023/07/25 02:25:59;;;;;;;9.87;4.03;;;15.10;99.90;;;;;;5050402;28;20293;-61
2023/07/25 02:28:27;;;;;;;6.47;3.90;;;15.10;99.90;;;;;;5048741;28;20198;-61
2023/07/25 02:30:55;;;;;;;5.83;3.40;;;15.00;99.90;;;;;;5050274;28;20199;-62
2023/07/25 02:33:25;;;;;;;9.83;3.33;;;15.00;99.90;;;;;;5048571;28;20209;-61
2023/07/25 02:35:53;;;;;;;8.30;3.50;;;14.90;99.90;;;;;;5048060;28;20460;-62
2023/07/25 02:38:22;;;;;;;9.43;4.23;;;15.00;99.90;;;;;;5050773;28;20198;-62
2023/07/25 02:40:50;;;;;;;7.87;3.87;;;14.90;99.90;;;;;;5042679;28;20685;-62
2023/07/25 02:43:18;;;;;;;4.43;3.83;;;15.00;99.90;;;;;;5044520;28;20198;-61
2023/07/25 02:45:47;;;;;;;6.63;3.77;;;15.00;99.90;;;;;;5046661;28;20254;-61
2023/07/25 02:48:15;;;;;;;6.20;4.00;;;15.00;99.90;;;;;;5050918;28;20226;-61
2023/07/25 02:50:45;;;;;;;7.73;4.23;;;15.00;99.90;;;;;;5042737;28;20221;-61
2023/07/25 02:53:14;;;;;;;8.60;4.60;;;14.90;99.90;;;;;;5043773;28;20191;-61
2023/07/25 02:55:42;;;;;;;4.73;3.90;;;14.90;99.90;;;;;;5044302;28;20223;-61
2023/07/25 02:58:12;;;;;;;5.77;3.67;;;15.00;99.90;;;;;;5049627;28;20660;-61
2023/07/25 03:00:41;;;;;;;7.43;4.07;;;15.00;99.90;;;;;;5045688;28;20245;-61
2023/07/25 03:03:10;;;;;;;5.83;4.10;;;15.00;99.90;;;;;;5058567;28;20297;-61
2023/07/25 03:05:38;;;;;;;8.20;4.40;;;14.90;99.90;;;;;;5052574;28;20223;-61
2023/07/25 03:08:07;;;;;;;4.90;4.50;;;14.90;99.90;;;;;;5054562;28;20214;-61
2023/07/25 03:10:36;;;;;;;8.87;4.27;;;14.90;99.90;;;;;;5050836;28;20286;-61
2023/07/25 03:13:04;;;;;;;6.47;4.50;;;14.90;99.90;;;;;;5044309;28;20294;-61
2023/07/25 03:15:33;;;;;;;4.53;4.07;;;14.90;99.90;;;;;;5054487;28;20196;-60
2023/07/25 03:18:01;;;;;;;12.27;4.53;;;14.90;99.90;;;;;;5061437;28;20202;-61
2023/07/25 03:20:32;;;;;;;7.43;4.20;;;14.80;99.90;;;;;;5051211;28;20196;-61
2023/07/25 03:23:00;;;;;;;8.23;4.77;;;14.80;99.90;;;;;;5063271;28;20283;-61
2023/07/25 03:25:30;;;;;;;5.93;4.17;;;14.80;99.90;;;;;;5051133;28;20227;-60
2023/07/25 03:27:58;;;;;;;10.47;4.57;;;14.80;99.90;;;;;;5053941;28;20295;-60
2023/07/25 03:30:26;;;;;;;7.00;4.33;;;14.80;99.90;;;;;;5051896;28;20718;-61
2023/07/25 03:32:55;;;;;;;5.20;4.73;;;14.80;99.90;;;;;;5048013;28;20207;-60
2023/07/25 03:35:23;;;;;;;6.70;4.20;;;14.90;99.90;;;;;;5046198;28;20274;-60
2023/07/25 03:37:51;;;;;;;9.43;4.30;;;14.80;99.90;;;;;;5051155;28;20215;-60
2023/07/25 03:40:20;;;;;;;5.27;4.20;;;14.80;99.90;;;;;;5049205;28;20713;-60
2023/07/25 03:42:50;;;;;;;8.37;4.40;;;14.80;99.90;;;;;;5046470;28;21216;-60
2023/07/25 03:45:18;;;;;;;11.30;4.40;;;14.80;99.90;;;;;;5040003;28;20201;-61
2023/07/25 03:47:47;;;;;;;10.27;4.20;;;14.80;99.90;;;;;;5046433;28;20194;-60
2023/07/25 03:50:15;;;;;;;6.90;4.80;;;14.70;99.90;;;;;;5051826;28;20529;-60
2023/07/25 03:52:43;;;;;;;6.37;4.30;;;14.80;99.90;;;;;;5043417;28;20224;-61
2023/07/25 03:55:12;;;;;;;4.97;4.40;;;14.70;99.90;;;;;;5045669;28;20196;-62
2023/07/25 03:57:41;;;;;;;4.97;4.40;;;14.80;99.90;;;;;;5054097;28;20292;-62
2023/07/25 04:00:12;;;;;;;7.70;4.60;;;14.80;99.90;;;;;;5049999;28;20647;-61
2023/07/25 04:02:40;;;;;;;5.90;4.70;;;14.70;99.90;;;;;;5041706;28;20628;-61
2023/07/25 04:05:09;;;;;;;7.17;5.20;;;14.70;99.90;;;;;;5048270;28;20220;-62
2023/07/25 04:07:37;;;;;;;12.17;5.20;;;14.70;99.90;;;;;;5039467;28;20217;-62
2023/07/25 04:10:07;;;;;;;6.40;5.00;;;14.70;99.90;;;;;;5045248;28;20240;-62
2023/07/25 04:12:35;;;;;;;5.03;4.60;;;14.70;99.90;;;;;;5054166;28;20688;-62
2023/07/25 04:15:04;;;;;;;5.33;4.83;;;14.70;99.90;;;;;;5050907;28;20201;-62
2023/07/25 04:17:33;;;;;;;8.57;5.17;;;14.70;99.90;;;;;;5047487;28;20660;-62
2023/07/25 04:20:02;;;;;;;7.10;4.90;;;14.70;99.90;;;;;;5047865;28;20199;-62
2023/07/25 04:22:31;;;;;;;5.83;4.40;;;14.70;99.90;;;;;;5043280;28;20226;-62
2023/07/25 04:24:59;;;;;;;7.43;4.90;;;14.70;99.90;;;;;;5052889;28;20193;-61
2023/07/25 04:27:30;;;;;;;10.23;5.40;;;14.70;99.90;;;;;;5056568;28;20544;-61
2023/07/25 04:29:59;;;;;;;9.90;5.37;;;14.70;99.90;;;;;;5054414;28;20824;-62
2023/07/25 04:32:27;;;;;;;7.87;4.53;;;14.70;99.90;;;;;;5049693;28;20187;-61
2023/07/25 04:34:57;;;;;;;11.67;4.83;;;14.70;99.90;;;;;;5051557;28;20575;-62
2023/07/25 04:37:26;;;;;;;7.30;4.77;;;14.80;99.90;;;;;;5055053;28;20227;-61
2023/07/25 04:39:55;;;;;;;8.70;4.67;;;14.70;99.90;;;;;;5060217;28;20276;-61
2023/07/25 04:42:23;;;;;;;8.23;4.43;;;14.70;99.90;;;;;;5050553;28;20186;-62
2023/07/25 04:44:51;;;;;;;9.87;4.70;;;14.80;99.90;;;;;;5054812;28;20281;-61
2023/07/25 04:47:20;;;;;;;9.40;4.80;;;14.80;99.90;;;;;;5049899;28;20213;-62
2023/07/25 04:49:48;;;;;;;12.10;4.63;;;14.80;99.90;;;;;;5053131;28;20218;-61
2023/07/25 04:52:19;;;;;;;11.17;4.07;;;14.80;99.90;;;;;;5052256;28;20199;-62
2023/07/25 04:54:49;;;;;;;8.13;4.63;;;14.80;99.90;;;;;;5059964;28;20190;-62
2023/07/25 04:57:17;;;;;;;9.13;4.17;;;14.90;99.90;;;;;;5051173;28;20195;-62
2023/07/25 04:59:45;;;;;;;9.63;4.17;;;14.90;99.90;;;;;;5047580;28;20202;-62
2023/07/25 05:02:14;;;;;;;19.97;4.80;;;14.90;99.90;;;;;;5048586;28;20207;-62
2023/07/25 05:04:42;;;;;;;5.90;3.80;;;14.90;99.90;;;;;;5055161;28;20210;-62
2023/07/25 05:07:10;;;;;;;5.60;3.90;;;15.00;99.90;;;;;;5045045;28;20649;-62
2023/07/25 05:09:40;;;;;;;4.20;3.80;;;15.00;99.90;;;;;;5045557;28;20207;-62
2023/07/25 05:12:14;;;;;;;8.30;4.00;;;15.00;99.90;;;;;;5047061;28;20233;-62
2023/07/25 05:14:42;;;;;;;5.73;3.67;;;15.10;99.90;;;;;;5047518;28;20202;-62
2023/07/25 05:17:11;;;;;;;4.67;3.77;;;15.10;99.90;;;;;;5049369;28;20589;-62
2023/07/25 05:19:41;;;;;;;6.93;3.43;;;15.00;99.90;;;;;;5054775;28;20549;-62
2023/07/25 05:22:10;;;;;;;4.77;3.70;;;15.00;99.90;;;;;;5048510;28;20197;-62
2023/07/25 05:24:38;;;;;;;5.57;3.80;;;15.10;99.90;;;;;;5044826;28;20206;-62
2023/07/25 05:27:08;;;;;;;5.87;3.40;;;15.10;99.90;;;;;;5051354;28;20217;-62
2023/07/25 05:29:36;;;;;;;10.03;3.47;;;15.10;99.90;;;;;;5050538;28;20194;-62
2023/07/25 05:32:05;;;;;;;4.00;3.13;;;15.10;99.90;;;;;;5050192;28;20197;-62
2023/07/25 05:34:34;;;;;;;10.50;4.03;;;15.10;99.90;;;;;;5055190;28;20300;-62
2023/07/25 05:37:02;;;;;;;4.73;3.20;;;15.10;99.90;;;;;;5054437;28;20191;-62
2023/07/25 05:39:30;;;;;;;7.43;3.53;;;15.10;99.90;;;;;;5048370;28;20195;-61
2023/07/25 05:42:02;;;;;;;6.40;3.37;;;15.10;99.90;;;;;;5046346;28;20184;-62
2023/07/25 05:44:32;;;;;;;4.70;3.30;;;15.10;99.90;;;;;;5049361;28;20336;-62
2023/07/25 05:47:02;;;;;;;5.50;3.03;;;15.10;99.90;;;;;;5043648;28;20233;-62
2023/07/25 05:49:31;;;;;;;10.10;3.37;;;15.10;99.90;;;;;;5045319;28;20230;-62
2023/07/25 05:51:59;;;;;;;6.40;2.73;;;15.10;99.90;;;;;;5047391;28;20191;-61
2023/07/25 05:54:28;;;;;;;4.03;2.90;;;15.10;99.90;;;;;;5039675;28;20201;-62
2023/07/25 05:56:57;;;;;;;7.43;3.40;;;15.10;99.90;;;;;;5044575;28;20191;-62
2023/07/25 05:59:25;;;;;;;7.13;2.83;;;15.00;99.90;;;;;;5059990;28;20206;-62
2023/07/25 06:01:55;;;;;;;6.60;2.80;;;15.00;99.90;;;;;;5053543;28;20283;-62
2023/07/25 06:04:23;;;;;;;4.97;2.80;;;15.00;99.90;;;;;;5053288;28;20242;-62
2023/07/25 06:06:52;;;;;;;14.07;4.60;;;15.00;99.90;;;;;;5053495;28;20233;-61
2023/07/25 06:09:20;;;;;;;9.43;3.47;;;15.10;99.90;;;;;;5047954;28;20202;-62
2023/07/25 06:11:48;;;;;;;13.60;3.40;;;15.10;99.90;;;;;;5042226;28;20193;-62
2023/07/25 06:14:17;;;;;;;4.23;2.80;;;15.10;99.90;;;;;;5045422;28;20208;-62
2023/07/25 06:16:45;;;;;;;9.80;3.07;;;15.10;99.90;;;;;;5047516;28;20190;-62
2023/07/25 06:19:15;;;;;;;7.30;3.00;;;15.00;99.90;;;;;;5054832;28;20687;-62
2023/07/25 06:21:43;;;;;;;4.27;2.57;;;15.00;99.90;;;;;;5047457;28;20215;-62
2023/07/25 06:24:13;;;;;;;7.00;2.80;;;15.00;99.90;;;;;;5045438;28;20187;-62
2023/07/25 06:26:42;;;;;;;6.60;2.70;;;15.10;99.90;;;;;;5049003;28;20254;-61
2023/07/25 06:29:10;;;;;;;7.03;2.77;;;15.10;99.90;;;;;;5048573;28;20206;-62
2023/07/25 06:31:40;;;;;;;6.53;2.83;;;15.20;99.90;;;;;;5061405;28;20194;-62
2023/07/25 06:34:08;;;;;;;6.03;3.00;;;15.30;99.90;;;;;;5050925;28;21332;-62
2023/07/25 06:36:38;;;;;;;7.17;2.70;;;15.50;99.90;;;;;;5042048;28;20587;-62
2023/07/25 06:39:07;;;;;;;6.23;2.90;;;15.70;99.90;;;;;;5052580;28;20824;-62
2023/07/25 06:41:36;;;;;;;3.13;2.60;;;15.80;99.90;;;;;;5046196;28;20288;-62
2023/07/25 06:44:04;;;;;;;5.77;2.60;;;15.70;99.90;;;;;;5046014;28;20216;-62
2023/07/25 06:46:33;;;;;;;6.23;2.87;;;15.80;99.90;;;;;;5047603;28;20208;-62
2023/07/25 06:49:01;;;;;;;4.50;2.40;;;15.80;99.90;;;;;;5050603;28;20232;-62
2023/07/25 06:51:30;;;;;;;11.37;3.90;;;15.90;99.90;;;;;;5049175;28;20291;-62
2023/07/25 06:54:00;;;;;;;5.10;2.57;;;16.00;99.90;;;;;;5037226;28;21385;-62
2023/07/25 06:56:28;;;;;;;8.17;2.43;;;16.10;99.90;;;;;;5045690;28;20538;-62
2023/07/25 06:58:57;;;;;;;5.27;2.63;;;16.10;99.90;;;;;;5049576;28;20650;-62
2023/07/25 07:01:27;;;;;;;6.97;2.77;;;16.20;99.90;;;;;;5041400;28;20189;-62
2023/07/25 07:03:57;;;;;;;9.07;2.50;;;16.30;99.90;;;;;;5058917;28;20313;-62
2023/07/25 07:06:25;;;;;;;4.67;2.67;;;16.40;99.90;;;;;;5038082;28;20196;-62
2023/07/25 07:08:54;;;;;;;6.23;2.50;;;16.60;99.90;;;;;;5048301;28;20211;-60
2023/07/25 07:11:23;;;;;;;8.10;2.67;;;16.70;99.90;;;;;;5041095;28;20193;-61
2023/07/25 07:13:54;;;;;;;5.93;2.40;;;16.90;99.90;;;;;;5045146;28;20192;-62
2023/07/25 07:16:22;;;;;;;3.27;1.80;;;17.00;99.90;;;;;;5047057;28;20258;-61
2023/07/25 07:18:52;;;;;;;6.07;2.27;;;17.20;99.90;;;;;;5041786;28;20733;-61
2023/07/25 07:21:20;;;;;;;12.03;2.57;;;17.30;97.60;;;;;;5047465;28;20197;-61
2023/07/25 07:23:48;;;;;;;5.53;2.50;;;17.10;95.30;;;;;;5052779;28;20197;-60
2023/07/25 07:26:19;;;;;;;4.37;2.13;;;17.30;99.90;;;;;;5043288;28;20197;-61
2023/07/25 07:28:49;;;;;;;5.70;2.10;;;17.60;97.40;;;;;;5046369;28;20311;-61
2023/07/25 07:31:23;;;;;;;6.67;1.80;;;18.10;93.70;;;;;;5051517;28;20196;-60
2023/07/25 07:33:52;;;;;;;3.93;1.50;;;18.60;60.80;;;;;;5042333;28;20186;-61
2023/07/25 07:36:21;;;;;;;5.93;1.77;;;18.70;17.10;;;;;;5045520;28;20738;-60
2023/07/25 07:38:49;;;;;;;6.93;2.23;;;18.60;24.70;;;;;;5041576;28;20195;-61
2023/07/25 07:41:17;;;;;;;1.77;1.67;;;18.30;11.70;;;;;;5047152;28;20311;-61
2023/07/25 07:43:46;;;;;;;2.00;1.73;;;18.00;10.70;;;;;;5043725;28;20197;-60
2023/07/25 07:46:15;;;;;;;5.83;1.90;;;17.70;22.80;;;;;;5038868;28;20197;-61
2023/07/25 07:48:45;;;;;;;6.07;1.80;;;17.40;40.70;;;;;;5042486;28;20331;-60
2023/07/25 07:51:13;;;;;;;2.50;1.87;;;17.30;57.80;;;;;;5043076;28;20219;-61
2023/07/25 07:53:42;;;;;;;5.63;2.03;;;17.30;75.30;;;;;;5037379;28;20193;-60
2023/07/25 07:56:12;;;;;;;3.53;1.77;;;17.20;67.50;;;;;;5032714;28;21032;-62
2023/07/25 07:58:40;;;;;;;4.53;1.73;;;17.30;86.60;;;;;;5040761;28;20279;-61
2023/07/25 08:01:16;;;;;;;6.57;2.10;;;17.30;63.60;;;;;;5050114;28;20209;-61
2023/07/25 08:03:45;;;;;;;6.23;1.83;;;17.40;74.40;;;;;;5042018;28;20930;-61
2023/07/25 08:06:13;;;;;;;3.67;1.83;;;17.60;33.50;;;;;;5036541;28;20209;-61
2023/07/25 08:08:42;;;;;;;3.43;1.73;;;17.70;58.20;;;;;;5039807;28;20305;-61
2023/07/25 08:11:11;;;;;;;6.23;1.90;;;18.00;52.40;;;;;;5043532;28;20214;-61
2023/07/25 08:13:39;;;;;;;5.10;1.80;;;18.20;33.50;;;;;;5058131;28;20196;-61
2023/07/25 08:16:07;;;;;;;2.53;1.77;;;18.60;12.10;;;;;;5053019;28;20203;-61
2023/07/25 08:18:38;;;;;;;6.93;1.40;;;18.80;1.00;;;;;;5043262;28;20184;-61
2023/07/25 08:21:06;;;;;;;5.57;1.70;;;18.90;1.00;;;;;;5045040;28;20231;-61
2023/07/25 08:23:35;;;;;;;6.00;1.40;;;18.70;1.00;;;;;;5050291;28;20189;-62
2023/07/25 08:26:03;;;;;;;6.17;1.60;;;18.60;1.00;;;;;;5047333;28;20270;-61
2023/07/25 08:28:32;;;;;;;3.97;2.00;;;18.50;1.00;;;;;;5051786;28;20200;-61
2023/07/25 08:31:00;;;;;;;7.33;1.57;;;18.40;1.00;;;;;;5046914;28;20189;-62
2023/07/25 08:33:31;;;;;;;6.27;1.80;;;18.30;1.00;;;;;;5041971;28;20729;-61
2023/07/25 08:36:01;;;;;;;5.50;1.57;;;18.10;1.00;;;;;;5053578;28;20196;-61
2023/07/25 08:38:29;;;;;;;5.70;1.53;;;18.00;1.00;;;;;;5046407;28;20850;-61
2023/07/25 08:41:03;;;;;;;5.23;1.87;;;17.80;1.00;;;;;;5048701;28;20203;-61
2023/07/25 08:43:37;;;;;;;5.77;1.57;;;17.70;1.00;;;;;;5046309;28;20203;-61
2023/07/25 08:46:08;;;;;;;4.93;1.60;;;17.60;1.00;;;;;;5057100;28;20539;-61
2023/07/25 08:48:38;;;;;;;2.73;1.70;;;17.60;1.00;;;;;;5047977;28;20307;-61
2023/07/25 08:51:14;;;;;;;3.17;1.60;;;17.50;1.00;;;;;;5051235;28;20176;-60
2023/07/25 08:53:52;;;;;;;5.63;2.10;;;17.50;1.00;;;;;;5048951;28;20758;-60
2023/07/25 08:56:21;;;;;;;4.30;1.50;;;17.50;1.00;;;;;;5050678;28;20200;-61
2023/07/25 08:58:50;;;;;;;5.97;1.80;;;17.40;1.00;;;;;;5056949;28;20181;-60
2023/07/25 09:01:19;;;;;;;3.33;1.77;;;17.40;1.00;;;;;;5049827;28;20197;-61
2023/07/25 09:03:49;;;;;;;5.43;2.00;;;17.30;1.00;;;;;;5052871;28;20701;-60
2023/07/25 09:06:19;;;;;;;4.80;2.10;;;17.10;1.00;;;;;;5049886;28;20606;-61
2023/07/25 09:08:47;;;;;;;7.50;2.00;;;17.10;3.80;;;;;;5056177;28;20683;-61
2023/07/25 09:11:20;;;;;;;6.40;2.00;;;17.00;13.40;;;;;;5046655;28;20197;-62
2023/07/25 09:13:49;;;;;;;3.37;1.93;;;16.90;18.50;;;;;;5047442;28;20192;-61
2023/07/25 09:16:17;;;;;;;4.63;1.90;;;16.80;16.10;;;;;;5045208;28;20658;-61
2023/07/25 09:18:45;;;;;;;5.87;2.23;;;16.60;60.30;;;;;;5053658;28;20184;-61
2023/07/25 09:21:15;;;;;;;5.40;2.60;;;16.60;71.20;;;;;;5045157;28;20192;-61
2023/07/25 09:23:53;;;;;;;5.53;2.20;;;16.70;63.20;;;;;;5044234;28;20643;-61
2023/07/25 09:26:22;;;;;;;7.93;2.30;;;16.60;49.20;;;;;;5045211;28;20195;-61
2023/07/25 09:28:52;;;;;;;5.63;2.70;;;16.60;79.00;;;;;;5052749;28;20536;-61
2023/07/25 09:31:21;;;;;;;7.00;2.80;;;16.50;79.90;;;;;;5044080;28;20194;-61
2023/07/25 09:33:51;;;;;;;5.17;2.03;;;16.50;93.00;;;;;;5045581;28;20201;-61
2023/07/25 09:36:21;;;;;;;6.60;2.67;;;16.40;99.90;;;;;;5050686;28;20197;-60
2023/07/25 09:38:50;;;;;;;5.20;2.27;;;16.20;99.90;;;;;;5046401;28;20192;-61
2023/07/25 09:41:21;;;;;;;7.53;2.63;;;16.10;99.90;;;;;;5047374;28;20203;-61
2023/07/25 09:43:51;;;;;;;7.97;2.93;;;16.00;99.90;;;;;;5053033;28;20185;-61
2023/07/25 09:46:20;;;;;;;6.53;2.43;;;15.90;99.90;;;;;;5062184;28;20209;-61
2023/07/25 09:48:52;;;;;;;6.07;2.80;;;15.80;99.90;;;;;;5042589;28;20284;-61
2023/07/25 09:51:21;;;;;;;6.07;3.03;;;15.70;99.90;;;;;;5044484;28;20587;-60
2023/07/25 09:53:52;;;;;;;8.10;4.20;;;15.70;99.90;;;;;;5037455;28;20196;-60
2023/07/25 09:56:23;;;;;;;10.10;4.90;;;15.70;99.90;;;;;;5042771;28;20669;-61
2023/07/25 09:58:52;;;;;;;12.53;7.37;;;15.60;99.90;;;;;;5043284;28;20253;-60
2023/07/25 10:01:36;;;;;;;23.67;12.43;;;15.60;99.90;;;;;;5039315;28;20596;-60
2023/07/25 10:04:06;;;;;;;22.27;13.33;;;15.60;99.90;;;;;;5048616;28;20194;-60
2023/07/25 10:06:37;;;;;;;18.67;10.40;;;15.60;99.90;;;;;;5049249;28;20555;-61
2023/07/25 10:09:06;;;;;;;16.30;11.37;;;15.70;99.90;;;;;;5037580;28;20209;-61
2023/07/25 10:11:37;;;;;;;21.80;14.17;;;15.80;99.90;;;;;;5048447;28;20253;-61
2023/07/25 10:14:05;;;;;;;33.27;17.67;;;16.00;99.90;;;;;;5041843;28;20299;-61
2023/07/25 10:16:38;;;;;;;31.97;16.97;;;16.20;99.90;;;;;;5041134;28;20192;-61
2023/07/25 10:19:07;;;;;;;22.80;13.53;;;16.50;99.90;;;;;;5049489;28;20188;-61
2023/07/25 10:21:47;;;;;;;17.50;10.13;;;16.90;99.90;;;;;;5043776;28;20263;-61
2023/07/25 10:24:16;;;;;;;12.53;8.90;;;17.10;99.90;;;;;;5047666;28;20204;-61
2023/07/25 10:26:56;;;;;;;16.80;9.17;;;17.30;98.10;;;;;;5045121;28;20193;-62
2023/07/25 10:29:39;;;;;;;12.53;7.90;;;17.60;99.90;;;;;;5044708;28;20216;-61
2023/07/25 10:32:08;;;;;;;17.27;9.50;;;17.90;49.50;;;;;;5052286;28;20655;-62
2023/07/25 10:34:49;;;;;;;14.17;8.03;;;18.10;17.80;;;;;;5043964;28;20706;-62
2023/07/25 10:37:22;;;;;;;11.67;6.40;;;18.70;14.10;;;;;;5045111;28;20220;-62
2023/07/25 10:40:10;;;;;;;11.07;4.93;;;19.50;1.00;;;;;;5052648;28;20201;-62
2023/07/25 10:42:49;;;;;;;7.00;3.37;;;20.00;1.00;;;;;;5047988;28;20186;-62
2023/07/25 10:45:48;;;;;;;8.63;3.13;;;20.00;1.00;;;;;;5046723;28;20638;-62
2023/07/25 10:48:45;;;;;;;3.73;2.20;;;19.70;1.00;;;;;;5044311;28;20672;-62
2023/07/25 10:51:15;;;;;;;4.77;2.67;;;19.80;1.00;;;;;;5047488;28;20222;-61
2023/07/25 10:54:06;;;;;;;3.90;2.00;;;19.20;1.00;;;;;;5051368;28;20216;-61
2023/07/25 10:56:35;;;;;;;3.87;1.97;;;18.90;1.00;;;;;;5038050;28;20202;-62
2023/07/25 10:59:10;;;;;;;6.13;2.50;;;18.80;1.00;;;;;;5040130;28;20242;-61
2023/07/25 11:01:46;;;;;;;2.73;2.00;;;18.80;1.00;;;;;;5043750;28;20225;-62
2023/07/25 11:04:29;;;;;;;3.33;1.80;;;19.20;1.00;;;;;;5050203;28;20222;-61
2023/07/25 11:06:59;;;;;;;3.53;1.80;;;20.30;1.00;;;;;;5058543;28;20211;-62
2023/07/25 11:09:28;;;;;;;3.00;2.00;;;21.00;1.00;;;;;;5051902;28;20205;-61
2023/07/25 11:11:57;;;;;;;5.00;1.90;;;21.60;1.00;;;;;;5047251;28;20243;-62
2023/07/25 11:14:30;;;;;;;5.07;2.30;;;22.00;99.90;;;;;;5043567;28;20192;-61
2023/07/25 11:16:58;;;;;;;6.77;1.80;;;22.50;99.90;;;;;;5044077;28;20197;-62
2023/07/25 11:19:30;;;;;;;1.83;1.50;;;23.00;1.00;;;;;;5044396;28;20197;-62
2023/07/25 11:21:59;;;;;;;1.73;1.60;;;23.50;1.00;;;;;;5043937;28;20195;-62
2023/07/25 11:24:27;;;;;;;4.73;2.00;;;23.70;1.00;;;;;;5046916;28;20197;-62
2023/07/25 11:26:56;;;;;;;2.73;1.30;;;23.20;99.90;;;;;;5047800;28;20247;-61
2023/07/25 11:29:24;;;;;;;4.67;1.70;;;22.50;99.90;;;;;;5040934;28;20182;-61
2023/07/25 11:31:54;;;;;;;4.03;1.60;;;22.10;1.00;;;;;;5049828;28;20201;-61
2023/07/25 11:34:22;;;;;;;1.90;1.60;;;21.60;99.90;;;;;;5042241;28;20199;-61
2023/07/25 11:36:51;;;;;;;5.60;1.90;;;21.20;1.00;;;;;;5051002;28;20676;-61
2023/07/25 11:39:19;;;;;;;1.80;1.57;;;20.90;1.00;;;;;;5046199;28;20202;-61
2023/07/25 11:41:47;;;;;;;3.33;1.80;;;20.50;7.70;;;;;;5050591;28;20190;-61
2023/07/25 11:44:17;;;;;;;4.50;2.10;;;20.40;1.00;;;;;;5045226;28;20194;-61
2023/07/25 11:46:51;;;;;;;3.73;1.87;;;20.30;99.90;;;;;;5040430;28;20187;-61
2023/07/25 11:49:21;;;;;;;3.23;1.63;;;20.20;99.90;;;;;;5038659;28;20705;-61
2023/07/25 11:52:09;;;;;;;2.07;1.47;;;20.30;1.00;;;;;;5035470;28;20278;-61
2023/07/25 11:54:37;;;;;;;4.83;1.37;;;20.20;99.90;;;;;;5044325;28;20260;-61
2023/07/25 11:57:09;;;;;;;1.40;1.30;;;20.70;14.30;;;;;;5043077;28;20192;-61
2023/07/25 11:59:40;;;;;;;5.33;1.50;;;21.20;99.90;;;;;;5045550;28;20526;-61
2023/07/25 12:02:10;;;;;;;3.20;1.27;;;21.60;99.90;;;;;;5060912;28;20354;-61
2023/07/25 12:04:44;;;;;;;2.27;1.00;;;22.00;1.00;;;;;;5040558;28;20598;-62
2023/07/25 12:07:13;;;;;;;0.80;0.80;;;22.70;1.00;;;;;;5048601;28;20223;-61
2023/07/25 12:09:51;;;;;;;2.10;0.90;;;23.00;90.40;;;;;;5045174;28;20193;-61
2023/07/25 12:12:20;;;;;;;1.93;1.30;;;22.60;99.90;;;;;;5050212;28;20226;-61
2023/07/25 12:14:56;;;;;;;2.87;1.10;;;22.20;1.00;;;;;;5044102;28;20192;-60
2023/07/25 12:17:24;;;;;;;2.23;1.30;;;22.20;99.90;;;;;;5044891;28;20199;-60
2023/07/25 12:19:54;;;;;;;1.40;1.30;;;22.30;1.00;;;;;;5045621;28;20621;-60
2023/07/25 12:22:23;;;;;;;1.43;0.90;;;22.60;1.00;;;;;;5048227;28;20226;-61
2023/07/25 12:24:51;;;;;;;3.47;1.10;;;22.90;99.90;;;;;;5049867;28;20216;-62
2023/07/25 12:27:21;;;;;;;2.53;1.00;;;23.20;1.00;;;;;;5040815;28;20217;-62
2023/07/25 12:29:49;;;;;;;1.63;0.97;;;23.40;99.90;;;;;;5051384;28;20224;-62
2023/07/25 12:32:18;;;;;;;1.60;1.00;;;23.60;99.90;;;;;;5043037;28;20196;-59
2023/07/25 12:34:48;;;;;;;1.17;1.17;;;23.80;99.90;;;;;;5043815;28;20188;-60
2023/07/25 12:37:18;;;;;;;3.53;1.03;;;24.00;34.40;;;;;;5040956;28;20196;-60
2023/07/25 12:39:47;;;;;;;1.10;1.10;;;23.80;1.00;;;;;;5045291;28;20222;-60
2023/07/25 12:42:15;;;;;;;1.00;0.90;;;23.80;1.00;;;;;;5045722;28;20224;-60
2023/07/25 12:44:43;;;;;;;4.30;1.47;;;23.50;99.90;;;;;;5051423;28;20192;-61
2023/07/25 12:47:12;;;;;;;2.57;1.33;;;23.50;1.00;;;;;;5049966;28;20197;-61
2023/07/25 12:49:40;;;;;;;3.60;1.23;;;23.30;1.00;;;;;;5051167;28;20285;-61
2023/07/25 12:52:09;;;;;;;2.67;1.30;;;23.00;99.90;;;;;;5048954;28;20211;-60
2023/07/25 12:54:39;;;;;;;1.77;1.10;;;22.90;99.90;;;;;;5046275;28;20200;-60
2023/07/25 12:57:07;;;;;;;1.30;1.20;;;23.00;1.00;;;;;;5048595;28;20197;-60
2023/07/25 12:59:36;;;;;;;2.17;1.03;;;23.20;1.00;;;;;;5055485;28;20199;-60
2023/07/25 13:02:06;;;;;;;1.27;1.00;;;23.50;1.00;;;;;;5048016;28;20238;-60